FIN5Z EFHK-EFKT
Flight info
| Callsign | FIN5Z |
|---|---|
| Flight time | 1h 17m |
| Altitude | 38000 |
| Route | TEVRU4P TEVRU Y75 EVIMI EVIMI2A |
| Aircraft | A319/L-V/N |
Departure
| Time | 2026-04-17 07:26 |
|---|---|
| Airport | Helsinki Vantaa Airport (EFHK) |
Arrival
| Time | 2026-04-17 08:43 |
|---|---|
| Airport | Kittilä International Airport (EFKT) |
| Time | Latitude | Longitude | Altitude | Speed | Heading |
|---|---|---|---|---|---|
| 2026-04-17 07:03 | 60.31841 | 24.96467 | 168 ft | 0 kts | 135° |
| 2026-04-17 07:13 | 60.31848 | 24.96453 | 167 ft | 2 kts | 135° |
| 2026-04-17 07:14 | 60.31860 | 24.96430 | 167 ft | 2 kts | 137° |
| 2026-04-17 07:14 | 60.31870 | 24.96408 | 167 ft | 2 kts | 112° |
| 2026-04-17 07:14 | 60.31874 | 24.96384 | 166 ft | 2 kts | 91° |
| 2026-04-17 07:14 | 60.31872 | 24.96360 | 166 ft | 2 kts | 56° |
| 2026-04-17 07:15 | 60.31869 | 24.96349 | 166 ft | 0 kts | 52° |
| 2026-04-17 07:17 | 60.31874 | 24.96362 | 166 ft | 2 kts | 52° |
| 2026-04-17 07:17 | 60.31908 | 24.96441 | 167 ft | 5 kts | 47° |
| 2026-04-17 07:18 | 60.31938 | 24.96505 | 167 ft | 7 kts | 47° |
| 2026-04-17 07:18 | 60.31975 | 24.96585 | 168 ft | 8 kts | 47° |
| 2026-04-17 07:18 | 60.31991 | 24.96621 | 168 ft | 9 kts | 47° |
| 2026-04-17 07:19 | 60.32014 | 24.96671 | 169 ft | 10 kts | 47° |
| 2026-04-17 07:19 | 60.32062 | 24.96780 | 170 ft | 11 kts | 49° |
| 2026-04-17 07:19 | 60.32092 | 24.96860 | 170 ft | 7 kts | 70° |
| 2026-04-17 07:19 | 60.32070 | 24.96938 | 171 ft | 7 kts | 148° |
| 2026-04-17 07:20 | 60.32032 | 24.96978 | 172 ft | 8 kts | 152° |
| 2026-04-17 07:20 | 60.31997 | 24.97016 | 172 ft | 10 kts | 152° |
| 2026-04-17 07:20 | 60.31933 | 24.97083 | 173 ft | 11 kts | 153° |
| 2026-04-17 07:21 | 60.31863 | 24.97154 | 174 ft | 13 kts | 152° |
| 2026-04-17 07:21 | 60.31780 | 24.97240 | 175 ft | 14 kts | 153° |
| 2026-04-17 07:21 | 60.31687 | 24.97335 | 176 ft | 16 kts | 153° |
| 2026-04-17 07:21 | 60.31586 | 24.97441 | 178 ft | 17 kts | 153° |
| 2026-04-17 07:22 | 60.31475 | 24.97560 | 179 ft | 19 kts | 150° |
| 2026-04-17 07:22 | 60.31391 | 24.97655 | 179 ft | 9 kts | 136° |
| 2026-04-17 07:22 | 60.31378 | 24.97783 | 180 ft | 10 kts | 115° |
| 2026-04-17 07:22 | 60.31319 | 24.97865 | 181 ft | 11 kts | 153° |
| 2026-04-17 07:23 | 60.31244 | 24.97942 | 182 ft | 13 kts | 153° |
| 2026-04-17 07:23 | 60.31158 | 24.98030 | 183 ft | 15 kts | 153° |
| 2026-04-17 07:23 | 60.31062 | 24.98127 | 189 ft | 16 kts | 153° |
| 2026-04-17 07:23 | 60.30999 | 24.98191 | 185 ft | 8 kts | 146° |
| 2026-04-17 07:24 | 60.30974 | 24.98290 | 186 ft | 8 kts | 91° |
| 2026-04-17 07:24 | 60.30992 | 24.98377 | 189 ft | 6 kts | 52° |
| 2026-04-17 07:24 | 60.31028 | 24.98430 | 191 ft | 7 kts | 24° |
| 2026-04-17 07:24 | 60.31075 | 24.98440 | 201 ft | 7 kts | 357° |
| 2026-04-17 07:25 | 60.31122 | 24.98404 | 191 ft | 8 kts | 333° |
| 2026-04-17 07:25 | 60.31244 | 24.98280 | 186 ft | 50 kts | 333° |
| 2026-04-17 07:25 | 60.31780 | 24.97727 | 176 ft | 120 kts | 333° |
| 2026-04-17 07:25 | 60.32668 | 24.96823 | 401 ft | 147 kts | 336° |
| 2026-04-17 07:26 | 60.33506 | 24.95978 | 1191 ft | 134 kts | 338° |
| 2026-04-17 07:26 | 60.34381 | 24.95084 | 1511 ft | 152 kts | 339° |
| 2026-04-17 07:26 | 60.35409 | 24.94059 | 1682 ft | 182 kts | 339° |
| 2026-04-17 07:26 | 60.36578 | 24.92889 | 2157 ft | 194 kts | 338° |
| 2026-04-17 07:27 | 60.37829 | 24.91630 | 2686 ft | 212 kts | 338° |
| 2026-04-17 07:27 | 60.39213 | 24.90199 | 3183 ft | 236 kts | 337° |
| 2026-04-17 07:27 | 60.40714 | 24.88622 | 3976 ft | 247 kts | 336° |
| 2026-04-17 07:27 | 60.42256 | 24.87031 | 5022 ft | 249 kts | 340° |
| 2026-04-17 07:28 | 60.43943 | 24.86285 | 5824 ft | 251 kts | 358° |
| 2026-04-17 07:28 | 60.45688 | 24.86078 | 6744 ft | 252 kts | 359° |
| 2026-04-17 07:28 | 60.47456 | 24.85910 | 7662 ft | 255 kts | 359° |
| 2026-04-17 07:28 | 60.49244 | 24.85754 | 8579 ft | 260 kts | 358° |
| 2026-04-17 07:29 | 60.51067 | 24.85596 | 9487 ft | 264 kts | 358° |
| 2026-04-17 07:29 | 60.52918 | 24.85426 | 10352 ft | 269 kts | 358° |
| 2026-04-17 07:29 | 60.53815 | 24.85340 | 10561 ft | 279 kts | 358° |
| 2026-04-17 07:29 | 60.55491 | 24.85177 | 10821 ft | 299 kts | 358° |
| 2026-04-17 07:30 | 60.57652 | 24.84966 | 11134 ft | 320 kts | 358° |
| 2026-04-17 07:30 | 60.59905 | 24.84740 | 11775 ft | 327 kts | 357° |
| 2026-04-17 07:30 | 60.62197 | 24.84504 | 12542 ft | 332 kts | 357° |
| 2026-04-17 07:30 | 60.64513 | 24.84266 | 13315 ft | 335 kts | 357° |
| 2026-04-17 07:31 | 60.66859 | 24.84023 | 14063 ft | 339 kts | 357° |
| 2026-04-17 07:31 | 60.69224 | 24.83774 | 14725 ft | 343 kts | 357° |
| 2026-04-17 07:31 | 60.71626 | 24.83525 | 15404 ft | 346 kts | 358° |
| 2026-04-17 07:31 | 60.74038 | 24.83281 | 16078 ft | 349 kts | 358° |
| 2026-04-17 07:32 | 60.76479 | 24.83033 | 16750 ft | 353 kts | 358° |
| 2026-04-17 07:32 | 60.78944 | 24.82781 | 17408 ft | 356 kts | 358° |
| 2026-04-17 07:32 | 60.81434 | 24.82540 | 18072 ft | 360 kts | 359° |
| 2026-04-17 07:32 | 60.83941 | 24.82879 | 18716 ft | 362 kts | 6° |
| 2026-04-17 07:33 | 60.86452 | 24.83492 | 19341 ft | 364 kts | 6° |
| 2026-04-17 07:33 | 60.88968 | 24.84098 | 19930 ft | 366 kts | 6° |
| 2026-04-17 07:33 | 60.91508 | 24.84699 | 20504 ft | 369 kts | 6° |
| 2026-04-17 07:33 | 60.94071 | 24.85300 | 21079 ft | 372 kts | 6° |
| 2026-04-17 07:34 | 60.96655 | 24.85904 | 21629 ft | 375 kts | 6° |
| 2026-04-17 07:34 | 60.99270 | 24.86524 | 22091 ft | 380 kts | 6° |
| 2026-04-17 07:34 | 61.01914 | 24.87154 | 22592 ft | 384 kts | 6° |
| 2026-04-17 07:34 | 61.04584 | 24.87791 | 23089 ft | 388 kts | 6° |
| 2026-04-17 07:35 | 61.07275 | 24.88435 | 23592 ft | 391 kts | 6° |
| 2026-04-17 07:35 | 61.09988 | 24.89082 | 24045 ft | 394 kts | 6° |
| 2026-04-17 07:35 | 61.12716 | 24.89732 | 24462 ft | 396 kts | 6° |
| 2026-04-17 07:35 | 61.15428 | 24.90380 | 24920 ft | 397 kts | 6° |
| 2026-04-17 07:36 | 61.18179 | 24.91039 | 25379 ft | 399 kts | 6° |
| 2026-04-17 07:36 | 61.20940 | 24.91701 | 25803 ft | 401 kts | 6° |
| 2026-04-17 07:36 | 61.23718 | 24.92368 | 26225 ft | 403 kts | 6° |
| 2026-04-17 07:36 | 61.26510 | 24.93039 | 26623 ft | 405 kts | 6° |
| 2026-04-17 07:37 | 61.29324 | 24.93720 | 27032 ft | 408 kts | 6° |
| 2026-04-17 07:37 | 61.32144 | 24.94409 | 27422 ft | 410 kts | 6° |
| 2026-04-17 07:37 | 61.34987 | 24.95107 | 27809 ft | 412 kts | 6° |
| 2026-04-17 07:37 | 61.37847 | 24.95806 | 28188 ft | 415 kts | 6° |
| 2026-04-17 07:38 | 61.40724 | 24.96507 | 28564 ft | 417 kts | 6° |
| 2026-04-17 07:38 | 61.43611 | 24.97213 | 28920 ft | 419 kts | 6° |
| 2026-04-17 07:38 | 61.46519 | 24.97931 | 29296 ft | 421 kts | 6° |
| 2026-04-17 07:38 | 61.49431 | 24.98653 | 29662 ft | 423 kts | 6° |
| 2026-04-17 07:39 | 61.52360 | 24.99377 | 30007 ft | 425 kts | 6° |
| 2026-04-17 07:39 | 61.55308 | 25.00098 | 30327 ft | 427 kts | 6° |
| 2026-04-17 07:39 | 61.58270 | 25.00819 | 30618 ft | 429 kts | 6° |
| 2026-04-17 07:39 | 61.61236 | 25.01502 | 31013 ft | 428 kts | 3° |
| 2026-04-17 07:40 | 61.64201 | 25.01675 | 31424 ft | 426 kts | 0° |
| 2026-04-17 07:40 | 61.67160 | 25.01786 | 31829 ft | 425 kts | 0° |
| 2026-04-17 07:40 | 61.70114 | 25.01896 | 32244 ft | 424 kts | 0° |
| 2026-04-17 07:40 | 61.73057 | 25.02006 | 32649 ft | 423 kts | 0° |
| 2026-04-17 07:41 | 61.75998 | 25.02111 | 33029 ft | 423 kts | 0° |
| 2026-04-17 07:41 | 61.78930 | 25.02217 | 33496 ft | 420 kts | 0° |
| 2026-04-17 07:41 | 61.81843 | 25.02326 | 33962 ft | 418 kts | 0° |
| 2026-04-17 07:41 | 61.84749 | 25.02436 | 34305 ft | 418 kts | 0° |
| 2026-04-17 07:42 | 61.87669 | 25.02545 | 34597 ft | 419 kts | 0° |
| 2026-04-17 07:42 | 61.90544 | 25.02653 | 34887 ft | 420 kts | 0° |
| 2026-04-17 07:42 | 61.93468 | 25.02768 | 35182 ft | 420 kts | 0° |
| 2026-04-17 07:42 | 61.96391 | 25.02884 | 35464 ft | 421 kts | 0° |
| 2026-04-17 07:43 | 61.99318 | 25.02998 | 35729 ft | 421 kts | 0° |
| 2026-04-17 07:43 | 62.02294 | 25.03115 | 35994 ft | 422 kts | 0° |
| 2026-04-17 07:43 | 62.05190 | 25.03226 | 36250 ft | 422 kts | 0° |
| 2026-04-17 07:43 | 62.08171 | 25.03343 | 36498 ft | 423 kts | 0° |
| 2026-04-17 07:44 | 62.11114 | 25.03458 | 36764 ft | 423 kts | 0° |
| 2026-04-17 07:44 | 62.14012 | 25.03567 | 37018 ft | 423 kts | 0° |
| 2026-04-17 07:44 | 62.16997 | 25.03678 | 37246 ft | 423 kts | 0° |
| 2026-04-17 07:44 | 62.19942 | 25.03786 | 37459 ft | 423 kts | 360° |
| 2026-04-17 07:45 | 62.22850 | 25.03892 | 37669 ft | 424 kts | 360° |
| 2026-04-17 07:45 | 62.25840 | 25.04004 | 37866 ft | 425 kts | 0° |
| 2026-04-17 07:45 | 62.28758 | 25.04119 | 38065 ft | 425 kts | 0° |
| 2026-04-17 07:45 | 62.31717 | 25.04238 | 38240 ft | 426 kts | 0° |
| 2026-04-17 07:46 | 62.37650 | 25.04476 | 38281 ft | 427 kts | 0° |
| 2026-04-17 07:46 | 62.43580 | 25.04703 | 38286 ft | 426 kts | 0° |
| 2026-04-17 07:47 | 62.49517 | 25.04926 | 38285 ft | 426 kts | 0° |
| 2026-04-17 07:47 | 62.55450 | 25.05146 | 38273 ft | 426 kts | 0° |
| 2026-04-17 07:48 | 62.61390 | 25.05384 | 38286 ft | 428 kts | 0° |
| 2026-04-17 07:48 | 62.67345 | 25.05622 | 38293 ft | 428 kts | 0° |
| 2026-04-17 07:49 | 62.73297 | 25.05851 | 38306 ft | 428 kts | 0° |
| 2026-04-17 07:49 | 62.79258 | 25.06080 | 38323 ft | 428 kts | 360° |
| 2026-04-17 07:50 | 62.85213 | 25.06317 | 38317 ft | 428 kts | 360° |
| 2026-04-17 07:50 | 62.91169 | 25.06563 | 38312 ft | 428 kts | 360° |
| 2026-04-17 07:51 | 62.97125 | 25.06807 | 38322 ft | 427 kts | 360° |
| 2026-04-17 07:51 | 63.03071 | 25.07031 | 38317 ft | 427 kts | 360° |
| 2026-04-17 07:52 | 63.09016 | 25.07261 | 38331 ft | 428 kts | 360° |
| 2026-04-17 07:52 | 63.14962 | 25.07517 | 38334 ft | 427 kts | 360° |
| 2026-04-17 07:53 | 63.20896 | 25.07771 | 38331 ft | 426 kts | 360° |
| 2026-04-17 07:53 | 63.26788 | 25.08018 | 38329 ft | 426 kts | 360° |
| 2026-04-17 07:54 | 63.32703 | 25.08252 | 38315 ft | 426 kts | 360° |
| 2026-04-17 07:54 | 63.38626 | 25.08485 | 38310 ft | 426 kts | 360° |
| 2026-04-17 07:55 | 63.44550 | 25.08727 | 38344 ft | 426 kts | 360° |
| 2026-04-17 07:55 | 63.50469 | 25.08973 | 38337 ft | 425 kts | 360° |
| 2026-04-17 07:56 | 63.56379 | 25.09217 | 38328 ft | 424 kts | 360° |
| 2026-04-17 07:56 | 63.62273 | 25.09470 | 38332 ft | 424 kts | 360° |
| 2026-04-17 07:57 | 63.68174 | 25.09713 | 38335 ft | 423 kts | 359° |
| 2026-04-17 07:57 | 63.74066 | 25.09945 | 38331 ft | 423 kts | 359° |
| 2026-04-17 07:58 | 63.79956 | 25.10187 | 38340 ft | 424 kts | 359° |
| 2026-04-17 07:58 | 63.85850 | 25.10433 | 38336 ft | 424 kts | 359° |
| 2026-04-17 07:59 | 63.91744 | 25.10681 | 38341 ft | 423 kts | 359° |
| 2026-04-17 07:59 | 63.96639 | 25.10893 | 38340 ft | 423 kts | 359° |
| 2026-04-17 08:00 | 64.02530 | 25.11144 | 38338 ft | 423 kts | 359° |
| 2026-04-17 08:00 | 64.08419 | 25.11396 | 38342 ft | 423 kts | 359° |
| 2026-04-17 08:01 | 64.14303 | 25.11647 | 38340 ft | 423 kts | 359° |
| 2026-04-17 08:01 | 64.20192 | 25.11889 | 38335 ft | 423 kts | 359° |
| 2026-04-17 08:02 | 64.26083 | 25.12136 | 38335 ft | 423 kts | 359° |
| 2026-04-17 08:02 | 64.31968 | 25.12400 | 38334 ft | 423 kts | 359° |
| 2026-04-17 08:03 | 64.37865 | 25.12655 | 38339 ft | 423 kts | 359° |
| 2026-04-17 08:03 | 64.43753 | 25.12916 | 38362 ft | 423 kts | 359° |
| 2026-04-17 08:04 | 64.49645 | 25.12988 | 38361 ft | 423 kts | 358° |
| 2026-04-17 08:04 | 64.55528 | 25.12919 | 38357 ft | 423 kts | 358° |
| 2026-04-17 08:05 | 64.61416 | 25.12875 | 38354 ft | 423 kts | 358° |
| 2026-04-17 08:05 | 64.67304 | 25.12877 | 38356 ft | 423 kts | 359° |
| 2026-04-17 08:06 | 64.73188 | 25.12888 | 38354 ft | 423 kts | 359° |
| 2026-04-17 08:06 | 64.79074 | 25.12901 | 38375 ft | 423 kts | 359° |
| 2026-04-17 08:07 | 64.84947 | 25.12911 | 38351 ft | 422 kts | 359° |
| 2026-04-17 08:07 | 64.90826 | 25.12922 | 38353 ft | 422 kts | 359° |
| 2026-04-17 08:08 | 64.96699 | 25.12918 | 38351 ft | 422 kts | 359° |
| 2026-04-17 08:08 | 65.02573 | 25.12910 | 38353 ft | 422 kts | 359° |
| 2026-04-17 08:09 | 65.08447 | 25.12900 | 38347 ft | 422 kts | 359° |
| 2026-04-17 08:09 | 65.14328 | 25.12912 | 38374 ft | 423 kts | 359° |
| 2026-04-17 08:10 | 65.20208 | 25.12915 | 38367 ft | 422 kts | 359° |
| 2026-04-17 08:10 | 65.26083 | 25.12874 | 38365 ft | 422 kts | 359° |
| 2026-04-17 08:11 | 65.31927 | 25.12827 | 38358 ft | 423 kts | 359° |
| 2026-04-17 08:11 | 65.37851 | 25.12802 | 38367 ft | 423 kts | 359° |
| 2026-04-17 08:12 | 65.43692 | 25.12785 | 38366 ft | 423 kts | 359° |
| 2026-04-17 08:12 | 65.49575 | 25.12760 | 38378 ft | 422 kts | 359° |
| 2026-04-17 08:13 | 65.55490 | 25.12721 | 38372 ft | 422 kts | 359° |
| 2026-04-17 08:14 | 65.64242 | 25.12664 | 38364 ft | 421 kts | 359° |
| 2026-04-17 08:14 | 65.70100 | 25.12635 | 38368 ft | 421 kts | 359° |
| 2026-04-17 08:15 | 65.75949 | 25.12624 | 38372 ft | 421 kts | 359° |
| 2026-04-17 08:15 | 65.81806 | 25.12582 | 38364 ft | 421 kts | 359° |
| 2026-04-17 08:16 | 65.87660 | 25.12539 | 38370 ft | 421 kts | 359° |
| 2026-04-17 08:16 | 65.93507 | 25.12496 | 38365 ft | 420 kts | 359° |
| 2026-04-17 08:17 | 65.99359 | 25.12466 | 38365 ft | 420 kts | 359° |
| 2026-04-17 08:17 | 66.05206 | 25.12432 | 38367 ft | 420 kts | 359° |
| 2026-04-17 08:18 | 66.11053 | 25.12394 | 38340 ft | 419 kts | 358° |
| 2026-04-17 08:18 | 66.13963 | 25.12181 | 37815 ft | 418 kts | 356° |
| 2026-04-17 08:18 | 66.16855 | 25.11735 | 37207 ft | 416 kts | 355° |
| 2026-04-17 08:18 | 66.19726 | 25.11153 | 36646 ft | 412 kts | 354° |
| 2026-04-17 08:19 | 66.22569 | 25.10534 | 36084 ft | 409 kts | 354° |
| 2026-04-17 08:19 | 66.25396 | 25.09939 | 35470 ft | 406 kts | 354° |
| 2026-04-17 08:19 | 66.28209 | 25.09387 | 34833 ft | 405 kts | 354° |
| 2026-04-17 08:19 | 66.31010 | 25.08870 | 34220 ft | 403 kts | 354° |
| 2026-04-17 08:20 | 66.33799 | 25.08376 | 33492 ft | 401 kts | 354° |
| 2026-04-17 08:20 | 66.36587 | 25.07896 | 32660 ft | 402 kts | 354° |
| 2026-04-17 08:20 | 66.39376 | 25.07421 | 31810 ft | 402 kts | 354° |
| 2026-04-17 08:20 | 66.42172 | 25.06939 | 30942 ft | 404 kts | 354° |
| 2026-04-17 08:21 | 66.44969 | 25.06455 | 30332 ft | 396 kts | 355° |
| 2026-04-17 08:21 | 66.47698 | 25.05984 | 29415 ft | 393 kts | 354° |
| 2026-04-17 08:21 | 66.50408 | 25.05501 | 28695 ft | 389 kts | 354° |
| 2026-04-17 08:21 | 66.53083 | 25.05017 | 28328 ft | 378 kts | 354° |
| 2026-04-17 08:22 | 66.55667 | 25.04550 | 28044 ft | 367 kts | 355° |
| 2026-04-17 08:22 | 66.58189 | 25.04089 | 27556 ft | 360 kts | 354° |
| 2026-04-17 08:22 | 66.60674 | 25.03638 | 26990 ft | 356 kts | 354° |
| 2026-04-17 08:22 | 66.63136 | 25.03193 | 26438 ft | 353 kts | 354° |
| 2026-04-17 08:23 | 66.65579 | 25.02754 | 25885 ft | 350 kts | 354° |
| 2026-04-17 08:23 | 66.68005 | 25.02315 | 25244 ft | 350 kts | 354° |
| 2026-04-17 08:23 | 66.70437 | 25.01869 | 24642 ft | 350 kts | 354° |
| 2026-04-17 08:23 | 66.72856 | 25.01429 | 24107 ft | 348 kts | 354° |
| 2026-04-17 08:24 | 66.75234 | 25.00998 | 23538 ft | 346 kts | 354° |
| 2026-04-17 08:24 | 66.77657 | 25.00557 | 22982 ft | 344 kts | 354° |
| 2026-04-17 08:24 | 66.79998 | 25.00132 | 22488 ft | 341 kts | 355° |
| 2026-04-17 08:24 | 66.82361 | 24.99704 | 21976 ft | 339 kts | 355° |
| 2026-04-17 08:25 | 66.84698 | 24.99279 | 21457 ft | 337 kts | 355° |
| 2026-04-17 08:25 | 66.87036 | 24.98857 | 20762 ft | 337 kts | 355° |
| 2026-04-17 08:25 | 66.89369 | 24.98433 | 20072 ft | 335 kts | 355° |
| 2026-04-17 08:25 | 66.91681 | 24.98004 | 19464 ft | 330 kts | 355° |
| 2026-04-17 08:26 | 66.93966 | 24.97571 | 18773 ft | 329 kts | 355° |
| 2026-04-17 08:26 | 66.96251 | 24.97133 | 17974 ft | 329 kts | 355° |
| 2026-04-17 08:26 | 66.98526 | 24.96708 | 17246 ft | 327 kts | 355° |
| 2026-04-17 08:26 | 67.00794 | 24.96293 | 16539 ft | 325 kts | 355° |
| 2026-04-17 08:27 | 67.03043 | 24.95883 | 15855 ft | 323 kts | 355° |
| 2026-04-17 08:27 | 67.05276 | 24.95475 | 15197 ft | 322 kts | 355° |
| 2026-04-17 08:27 | 67.07508 | 24.95061 | 14599 ft | 320 kts | 355° |
| 2026-04-17 08:27 | 67.09725 | 24.94648 | 13986 ft | 319 kts | 355° |
| 2026-04-17 08:28 | 67.11932 | 24.94235 | 13320 ft | 317 kts | 355° |
| 2026-04-17 08:28 | 67.14127 | 24.93826 | 12681 ft | 315 kts | 355° |
| 2026-04-17 08:28 | 67.16292 | 24.94385 | 12053 ft | 315 kts | 16° |
| 2026-04-17 08:28 | 67.18223 | 24.97049 | 11423 ft | 316 kts | 32° |
| 2026-04-17 08:29 | 67.20013 | 25.00342 | 10790 ft | 315 kts | 33° |
| 2026-04-17 08:29 | 67.21781 | 25.03627 | 10332 ft | 309 kts | 33° |
| 2026-04-17 08:29 | 67.23474 | 25.06777 | 10187 ft | 289 kts | 33° |
| 2026-04-17 08:29 | 67.25033 | 25.09714 | 10058 ft | 268 kts | 33° |
| 2026-04-17 08:30 | 67.26488 | 25.12500 | 9816 ft | 253 kts | 33° |
| 2026-04-17 08:30 | 67.27884 | 25.15191 | 9327 ft | 249 kts | 33° |
| 2026-04-17 08:30 | 67.29278 | 25.17872 | 8795 ft | 251 kts | 33° |
| 2026-04-17 08:30 | 67.30683 | 25.20556 | 8327 ft | 250 kts | 32° |
| 2026-04-17 08:31 | 67.32250 | 25.22264 | 7869 ft | 244 kts | 5° |
| 2026-04-17 08:31 | 67.33895 | 25.21663 | 7433 ft | 242 kts | 338° |
| 2026-04-17 08:31 | 67.35375 | 25.19554 | 6974 ft | 243 kts | 329° |
| 2026-04-17 08:31 | 67.36759 | 25.17261 | 6814 ft | 229 kts | 329° |
| 2026-04-17 08:32 | 67.38034 | 25.15104 | 6629 ft | 215 kts | 328° |
| 2026-04-17 08:32 | 67.39266 | 25.13002 | 6252 ft | 210 kts | 328° |
| 2026-04-17 08:32 | 67.40482 | 25.10928 | 5821 ft | 208 kts | 328° |
| 2026-04-17 08:32 | 67.41688 | 25.08872 | 5407 ft | 206 kts | 328° |
| 2026-04-17 08:33 | 67.42883 | 25.06841 | 5075 ft | 205 kts | 328° |
| 2026-04-17 08:33 | 67.44090 | 25.04790 | 4762 ft | 204 kts | 328° |
| 2026-04-17 08:33 | 67.45260 | 25.02797 | 4437 ft | 204 kts | 329° |
| 2026-04-17 08:33 | 67.46542 | 25.01300 | 4130 ft | 202 kts | 343° |
| 2026-04-17 08:34 | 67.47890 | 25.00282 | 4036 ft | 202 kts | 345° |
| 2026-04-17 08:34 | 67.49236 | 24.99166 | 4041 ft | 204 kts | 340° |
| 2026-04-17 08:34 | 67.50551 | 24.97771 | 3959 ft | 204 kts | 339° |
| 2026-04-17 08:34 | 67.51891 | 24.96552 | 3900 ft | 204 kts | 344° |
| 2026-04-17 08:35 | 67.53249 | 24.95588 | 3816 ft | 197 kts | 346° |
| 2026-04-17 08:35 | 67.54536 | 24.94746 | 3775 ft | 185 kts | 347° |
| 2026-04-17 08:35 | 67.55762 | 24.93966 | 3630 ft | 179 kts | 349° |
| 2026-04-17 08:35 | 67.56981 | 24.94243 | 3298 ft | 181 kts | 26° |
| 2026-04-17 08:36 | 67.57875 | 24.96566 | 2965 ft | 187 kts | 60° |
| 2026-04-17 08:36 | 67.58079 | 24.99925 | 2682 ft | 193 kts | 96° |
| 2026-04-17 08:36 | 67.57490 | 25.03124 | 2617 ft | 205 kts | 133° |
| 2026-04-17 08:36 | 67.56236 | 25.04976 | 3197 ft | 215 kts | 165° |
| 2026-04-17 08:37 | 67.54753 | 25.05109 | 3101 ft | 211 kts | 185° |
| 2026-04-17 08:37 | 67.53307 | 25.04685 | 3040 ft | 207 kts | 187° |
| 2026-04-17 08:37 | 67.51886 | 25.04120 | 3017 ft | 206 kts | 195° |
| 2026-04-17 08:37 | 67.50718 | 25.02103 | 3018 ft | 203 kts | 236° |
| 2026-04-17 08:38 | 67.50360 | 24.98717 | 3023 ft | 194 kts | 284° |
| 2026-04-17 08:38 | 67.51052 | 24.95922 | 3021 ft | 185 kts | 333° |
| 2026-04-17 08:38 | 67.52277 | 24.95472 | 3079 ft | 183 kts | 8° |
| 2026-04-17 08:38 | 67.53538 | 24.95540 | 3018 ft | 183 kts | 348° |
| 2026-04-17 08:39 | 67.54754 | 24.94584 | 3015 ft | 182 kts | 347° |
| 2026-04-17 08:39 | 67.55986 | 24.93800 | 3017 ft | 182 kts | 348° |
| 2026-04-17 08:39 | 67.57219 | 24.93017 | 3014 ft | 182 kts | 348° |
| 2026-04-17 08:39 | 67.58448 | 24.92229 | 3013 ft | 183 kts | 348° |
| 2026-04-17 08:40 | 67.59642 | 24.91460 | 2884 ft | 175 kts | 348° |
| 2026-04-17 08:40 | 67.60806 | 24.90709 | 2639 ft | 170 kts | 348° |
| 2026-04-17 08:40 | 67.61929 | 24.89984 | 2397 ft | 163 kts | 348° |
| 2026-04-17 08:40 | 67.63014 | 24.89282 | 2139 ft | 154 kts | 348° |
| 2026-04-17 08:41 | 67.64001 | 24.88642 | 1900 ft | 139 kts | 348° |
| 2026-04-17 08:41 | 67.64895 | 24.88063 | 1680 ft | 130 kts | 349° |
| 2026-04-17 08:41 | 67.65765 | 24.87499 | 1453 ft | 128 kts | 348° |
| 2026-04-17 08:41 | 67.66620 | 24.86946 | 1257 ft | 125 kts | 347° |
| 2026-04-17 08:42 | 67.67462 | 24.86398 | 1072 ft | 124 kts | 348° |
| 2026-04-17 08:42 | 67.68298 | 24.85851 | 858 ft | 123 kts | 347° |
| 2026-04-17 08:42 | 67.69124 | 24.85318 | 671 ft | 120 kts | 348° |
| 2026-04-17 08:42 | 67.69786 | 24.84894 | 641 ft | 62 kts | 346° |
| 2026-04-17 08:43 | 67.70003 | 24.84755 | 639 ft | 23 kts | 347° |
| 2026-04-17 08:43 | 67.70164 | 24.84652 | 641 ft | 24 kts | 346° |
| 2026-04-17 08:43 | 67.70310 | 24.84593 | 642 ft | 13 kts | 6° |
| 2026-04-17 08:43 | 67.70333 | 24.84540 | 643 ft | 3 kts | 191° |
| 2026-04-17 08:44 | 67.70298 | 24.84562 | 642 ft | 7 kts | 167° |
| 2026-04-17 08:44 | 67.70230 | 24.84605 | 641 ft | 13 kts | 166° |
| 2026-04-17 08:44 | 67.70133 | 24.84669 | 637 ft | 16 kts | 166° |
| 2026-04-17 08:44 | 67.70018 | 24.84744 | 639 ft | 17 kts | 166° |
| 2026-04-17 08:45 | 67.69892 | 24.84826 | 640 ft | 19 kts | 166° |
| 2026-04-17 08:45 | 67.69755 | 24.84915 | 641 ft | 22 kts | 166° |
| 2026-04-17 08:45 | 67.69601 | 24.85014 | 641 ft | 24 kts | 166° |
| 2026-04-17 08:45 | 67.69539 | 24.85063 | 643 ft | 10 kts | 154° |
| 2026-04-17 08:46 | 67.69517 | 24.85237 | 642 ft | 9 kts | 82° |
| 2026-04-17 08:46 | 67.69532 | 24.85420 | 643 ft | 12 kts | 75° |
| 2026-04-17 08:46 | 67.69574 | 24.85515 | 644 ft | 6 kts | 58° |
| 2026-04-17 08:46 | 67.69582 | 24.85594 | 642 ft | 5 kts | 77° |
| 2026-04-17 08:47 | 67.69587 | 24.85647 | 642 ft | 0 kts | 77° |